This is the latest recevied weather packets stored in our database for station/object KC8JWT. If no packets are shown the sender has not sent any weather packets the latest 10 day(s).
| Time | Temp. | Humidity | Pressure | Rain* | Wind** | Luminosity | Snow |
|---|---|---|---|---|---|---|---|
| 1777418572 | 24.44° C | 67% | 1011.7 hPa | 0 mm | - | 64 W/m² | - |
| 1777418269 | 24.44° C | 66% | 1011.8 hPa | 0 mm | - | 62 W/m² | - |
| 1777417964 | 25° C | 64% | 1012.1 hPa | 0 mm | - | 58 W/m² | - |
| 1777417661 | 25° C | 65% | 1012.4 hPa | 0 mm | - | 51 W/m² | - |
| 1777417356 | 26.11° C | 63% | 1012.4 hPa | 0 mm | - | 72 W/m² | - |
| 1777417053 | 26.11° C | 62% | 1012.4 hPa | 0 mm | - | 117 W/m² | - |
| 1777416749 | 26.11° C | 63% | 1012.5 hPa | 0 mm | - | 136 W/m² | - |
| 1777416444 | 26.11° C | 63% | 1012.4 hPa | 0 mm | - | 156 W/m² | - |
| 1777416140 | 26.11° C | 63% | 1012.5 hPa | 0 mm | - | 177 W/m² | - |
| 1777415835 | 26.67° C | 64% | 1012.8 hPa | 0 mm | - | 72 W/m² | - |
| 1777415530 | 26.67° C | 62% | 1012.5 hPa | 0 mm | - | 74 W/m² | - |
| 1777415226 | 26.67° C | 64% | 1012.8 hPa | 0 mm | - | 234 W/m² | - |
| 1777414922 | 26.11° C | 66% | 1012.9 hPa | 0 mm | - | 265 W/m² | - |
| 1777414621 | 26.11° C | 63% | 1012.7 hPa | 0 mm | - | 271 W/m² | - |
| 1777414316 | 26.11° C | 65% | 1012.7 hPa | 0 mm | - | 287 W/m² | - |
| 1777414011 | 25.56° C | 66% | 1012.7 hPa | 0 mm | - | 321 W/m² | - |
| 1777413706 | 26.67° C | 63% | 1012.7 hPa | 0 mm | - | 75 W/m² | - |
| 1777413402 | 26.67° C | 63% | 1012.8 hPa | 0 mm | - | 341 W/m² | - |
| 1777413098 | 26.11° C | 65% | 1013.1 hPa | 0 mm | - | 384 W/m² | - |
| 1777412793 | 26.11° C | 63% | 1013.3 hPa | 0 mm | - | 186 W/m² | - |
| 1777412492 | 26.11° C | 64% | 1012.9 hPa | 0 mm | - | 353 W/m² | - |
| 1777412190 | 26.11° C | 64% | 1013.3 hPa | 0 mm | - | 428 W/m² | - |
| 1777411886 | 25° C | 68% | 1013.1 hPa | 0 mm | - | 572 W/m² | - |
| 1777411585 | 25° C | 68% | 1013.1 hPa | 0 mm | - | 146 W/m² | - |
| 1777411281 | 26.11° C | 65% | 1013.1 hPa | 0 mm | - | 153 W/m² | - |
* Rain latest hour (hover to see other rain measurements)
** Current wind speed in m/s (hover to see current wind gust speed)